createdAt,value
2019-01-06T00:00:53.183Z,42.19
2019-01-06T00:01:53.176Z,42.80
2019-01-06T00:02:53.163Z,42.69
2019-01-06T00:03:53.167Z,42.49
2019-01-06T00:04:53.141Z,42.40
2019-01-06T00:05:53.146Z,42.49
2019-01-06T00:06:53.127Z,41.88
2019-01-06T00:07:53.136Z,41.97
2019-01-06T00:08:53.141Z,42.27
2019-01-06T00:09:53.122Z,41.67
2019-01-06T00:10:53.084Z,41.38
2019-01-06T00:11:53.075Z,41.27
2019-01-06T00:12:53.056Z,41.55
2019-01-06T00:13:53.079Z,41.38
2019-01-06T00:14:53.049Z,41.75
2019-01-06T00:15:53.043Z,41.66
2019-01-06T00:16:53.017Z,41.55
2019-01-06T00:17:53.008Z,40.87
2019-01-06T00:18:53.039Z,41.35
2019-01-06T00:19:53.002Z,41.55
2019-01-06T00:20:52.978Z,41.66
2019-01-06T00:21:52.961Z,41.55
2019-01-06T00:22:52.948Z,41.46
2019-01-06T00:23:52.936Z,41.15
2019-01-06T00:24:52.944Z,41.66
2019-01-06T00:25:52.921Z,41.46
2019-01-06T00:26:52.947Z,41.46
2019-01-06T00:27:52.925Z,41.05
2019-01-06T00:28:52.938Z,40.85
2019-01-06T00:29:52.933Z,41.46
2019-01-06T00:30:52.891Z,41.85
2019-01-06T00:31:52.858Z,41.05
2019-01-06T00:32:52.845Z,41.13
2019-01-06T00:33:52.862Z,41.43
2019-01-06T00:34:52.860Z,40.43
2019-01-06T00:35:52.834Z,40.73
2019-01-06T00:36:52.883Z,40.93
2019-01-06T00:37:52.802Z,40.53
2019-01-06T00:38:52.792Z,40.93
2019-01-06T00:39:52.786Z,40.63
2019-01-06T00:40:52.778Z,40.61
2019-01-06T00:41:52.753Z,40.01
2019-01-06T00:42:52.747Z,40.31
2019-01-06T00:43:52.738Z,40.01
2019-01-06T00:44:54.218Z,39.72
2019-01-06T00:45:52.727Z,40.01
2019-01-06T00:46:52.712Z,39.72
2019-01-06T00:47:52.697Z,40.01
2019-01-06T00:48:52.804Z,39.73
2019-01-06T00:49:52.741Z,40.22
2019-01-06T00:50:52.675Z,39.72
2019-01-06T00:51:52.925Z,39.81
2019-01-06T00:52:52.692Z,39.51
2019-01-06T00:53:52.640Z,39.91
2019-01-06T00:54:52.618Z,39.72
2019-01-06T00:55:52.636Z,39.81
2019-01-06T00:56:52.602Z,39.72
2019-01-06T00:57:52.585Z,40.43
2019-01-06T00:58:52.573Z,39.73
2019-01-06T00:59:52.559Z,40.23
2019-01-06T01:00:52.578Z,40.63
2019-01-06T01:01:52.562Z,40.23
2019-01-06T01:02:52.532Z,40.73
2019-01-06T01:03:52.523Z,40.43
2019-01-06T01:04:52.505Z,39.93
2019-01-06T01:05:52.510Z,39.53
2019-01-06T01:06:52.488Z,40.22
2019-01-06T01:07:52.482Z,39.53
2019-01-06T01:08:52.471Z,39.81
2019-01-06T01:09:52.454Z,39.41
2019-01-06T01:10:52.470Z,39.91
2019-01-06T01:11:52.436Z,40.11
2019-01-06T01:12:52.421Z,39.91
2019-01-06T01:13:52.406Z,39.72
2019-01-06T01:14:52.397Z,39.91
2019-01-06T01:15:52.411Z,40.00
2019-01-06T01:16:52.378Z,40.00
2019-01-06T01:17:52.364Z,39.29
2019-01-06T01:18:52.364Z,38.79
2019-01-06T01:19:52.346Z,39.00
2019-01-06T01:20:52.391Z,39.39
2019-01-06T01:21:52.330Z,39.18
2019-01-06T01:22:52.318Z,39.39
2019-01-06T01:23:52.374Z,39.29
2019-01-06T01:24:52.343Z,38.20
2019-01-06T01:25:52.307Z,39.39
2019-01-06T01:26:52.271Z,39.20
2019-01-06T01:27:52.266Z,38.20
2019-01-06T01:28:52.265Z,39.39
2019-01-06T01:29:52.239Z,39.39
2019-01-06T01:30:52.235Z,39.29
2019-01-06T01:31:52.213Z,39.29
2019-01-06T01:32:52.206Z,39.20
2019-01-06T01:33:52.204Z,39.59
2019-01-06T01:34:52.331Z,39.72
2019-01-06T01:35:52.199Z,40.11
2019-01-06T01:36:52.164Z,39.72
2019-01-06T01:37:52.151Z,39.91
2019-01-06T01:38:52.138Z,40.01
2019-01-06T01:39:52.125Z,39.91
2019-01-06T01:40:52.124Z,39.50
2019-01-06T01:41:52.179Z,39.09
2019-01-06T01:42:52.110Z,39.29
2019-01-06T01:43:52.094Z,39.00
2019-01-06T01:44:52.075Z,38.20
2019-01-06T01:45:52.079Z,38.38
2019-01-06T01:46:52.082Z,38.98
2019-01-06T01:47:52.044Z,38.68
2019-01-06T01:48:52.031Z,38.78
2019-01-06T01:49:52.015Z,38.48
2019-01-06T01:50:52.006Z,38.87
2019-01-06T01:51:52.011Z,38.38
2019-01-06T01:52:51.989Z,38.68
2019-01-06T01:53:51.975Z,38.38
2019-01-06T01:54:51.972Z,38.18
2019-01-06T01:55:51.958Z,38.48
2019-01-06T01:56:51.961Z,38.57
2019-01-06T01:57:51.932Z,38.57
2019-01-06T01:58:51.931Z,38.78
2019-01-06T01:59:51.918Z,38.40
2019-01-06T02:00:51.904Z,38.89
2019-01-06T02:01:51.912Z,38.40
2019-01-06T02:02:51.918Z,38.68
2019-01-06T02:03:51.873Z,38.49
2019-01-06T02:04:51.918Z,38.40
2019-01-06T02:05:51.850Z,38.49
2019-01-06T02:06:51.850Z,38.20
2019-01-06T02:07:51.838Z,38.70
2019-01-06T02:08:51.889Z,38.70
2019-01-06T02:09:51.806Z,38.48
2019-01-06T02:10:51.806Z,38.57
2019-01-06T02:11:51.814Z,38.87
2019-01-06T02:12:51.781Z,38.48
2019-01-06T02:13:51.774Z,38.18
2019-01-06T02:14:51.766Z,38.38
2019-01-06T02:15:51.746Z,37.58
2019-01-06T02:16:51.734Z,37.77
2019-01-06T02:17:51.746Z,38.18
2019-01-06T02:18:51.716Z,37.58
2019-01-06T02:19:51.702Z,38.18
2019-01-06T02:20:51.692Z,37.77
2019-01-06T02:21:51.682Z,37.98
2019-01-06T02:22:51.686Z,38.07
2019-01-06T02:23:51.662Z,37.77
2019-01-06T02:24:51.658Z,38.18
2019-01-06T02:25:51.681Z,37.98
2019-01-06T02:26:51.631Z,38.28
2019-01-06T02:27:51.634Z,38.28
2019-01-06T02:28:51.611Z,37.88
2019-01-06T02:29:51.606Z,38.57
2019-01-06T02:30:51.604Z,38.38
2019-01-06T02:31:51.580Z,38.87
2019-01-06T02:32:51.601Z,38.87
2019-01-06T02:33:51.557Z,38.70
2019-01-06T02:34:51.544Z,38.48
2019-01-06T02:35:51.544Z,38.78
2019-01-06T02:36:51.528Z,39.07
2019-01-06T02:37:51.532Z,37.98
2019-01-06T02:38:51.507Z,37.88
2019-01-06T02:39:51.492Z,38.07
2019-01-06T02:40:51.487Z,37.77
2019-01-06T02:41:51.476Z,38.87
2019-01-06T02:42:51.477Z,38.57
2019-01-06T02:43:51.459Z,37.77
2019-01-06T02:44:51.443Z,38.28
2019-01-06T02:45:51.435Z,37.68
2019-01-06T02:46:51.421Z,37.68
2019-01-06T02:47:51.427Z,37.58
2019-01-06T02:48:51.405Z,38.28
2019-01-06T02:49:51.392Z,37.88
2019-01-06T02:50:51.388Z,37.58
2019-01-06T02:51:51.374Z,37.58
2019-01-06T02:52:51.371Z,37.88
2019-01-06T02:53:51.348Z,37.98
2019-01-06T02:54:51.338Z,37.68
2019-01-06T02:55:51.329Z,37.88
2019-01-06T02:56:51.328Z,37.58
2019-01-06T02:57:51.326Z,37.98
2019-01-06T02:58:51.299Z,37.58
2019-01-06T02:59:51.297Z,37.98
2019-01-06T03:00:51.280Z,38.48
2019-01-06T03:01:51.267Z,38.38
2019-01-06T03:02:51.275Z,38.28
2019-01-06T03:03:51.248Z,38.57
2019-01-06T03:04:51.240Z,38.48
2019-01-06T03:05:51.225Z,38.57
2019-01-06T03:06:51.216Z,37.98
2019-01-06T03:07:51.208Z,38.87
2019-01-06T03:08:51.212Z,37.79
2019-01-06T03:09:51.195Z,38.87
2019-01-06T03:10:51.173Z,37.98
2019-01-06T03:11:51.167Z,37.77
2019-01-06T03:12:51.148Z,37.48
2019-01-06T03:13:51.156Z,37.58
2019-01-06T03:14:51.134Z,37.77
2019-01-06T03:15:51.123Z,37.68
2019-01-06T03:16:51.111Z,38.28
2019-01-06T03:17:51.095Z,37.88
2019-01-06T03:18:51.111Z,37.77
2019-01-06T03:19:51.082Z,37.56
2019-01-06T03:20:51.068Z,37.36
2019-01-06T03:21:51.061Z,37.58
2019-01-06T03:22:51.047Z,37.66
2019-01-06T03:23:51.062Z,37.38
2019-01-06T03:24:51.027Z,37.58
2019-01-06T03:25:51.018Z,37.18
2019-01-06T03:26:51.007Z,37.88
2019-01-06T03:27:50.997Z,37.27
2019-01-06T03:28:51.000Z,38.18
2019-01-06T03:29:50.983Z,37.58
2019-01-06T03:30:50.982Z,37.58
2019-01-06T03:31:50.957Z,37.88
2019-01-06T03:32:50.948Z,37.48
2019-01-06T03:33:50.951Z,38.68
2019-01-06T03:34:50.921Z,37.88
2019-01-06T03:35:50.918Z,38.38
2019-01-06T03:36:50.909Z,37.79
2019-01-06T03:37:50.889Z,38.38
2019-01-06T03:38:50.905Z,38.18
2019-01-06T03:39:50.876Z,37.77
2019-01-06T03:40:50.858Z,38.29
2019-01-06T03:41:50.853Z,37.98
2019-01-06T03:42:50.836Z,38.57
2019-01-06T03:43:50.865Z,38.29
2019-01-06T03:44:50.822Z,37.99
2019-01-06T03:45:50.810Z,38.49
2019-01-06T03:46:50.799Z,38.87
2019-01-06T03:47:50.786Z,38.28
2019-01-06T03:48:50.783Z,38.59
2019-01-06T03:49:50.781Z,38.49
2019-01-06T03:50:50.756Z,38.70
2019-01-06T03:51:50.746Z,38.51
2019-01-06T03:52:50.745Z,38.49
2019-01-06T03:53:50.733Z,38.91
2019-01-06T03:54:50.731Z,39.11
2019-01-06T03:55:50.702Z,39.41
2019-01-06T03:56:50.694Z,38.81
2019-01-06T03:57:50.686Z,38.81
2019-01-06T03:58:50.673Z,38.51
2019-01-06T03:59:50.670Z,38.81
2019-01-06T04:00:50.656Z,38.79
2019-01-06T04:01:50.635Z,38.91
2019-01-06T04:02:50.630Z,38.89
2019-01-06T04:03:50.620Z,38.70
2019-01-06T04:04:50.624Z,38.20
2019-01-06T04:05:50.595Z,38.29
2019-01-06T04:06:50.589Z,37.77
2019-01-06T04:07:50.578Z,38.28
2019-01-06T04:08:50.567Z,38.09
2019-01-06T04:09:50.564Z,37.48
2019-01-06T04:10:50.541Z,37.48
2019-01-06T04:11:50.534Z,37.68
2019-01-06T04:12:50.542Z,38.07
2019-01-06T04:13:50.507Z,37.77
2019-01-06T04:14:50.524Z,37.68
2019-01-06T04:15:50.490Z,38.28
2019-01-06T04:16:50.479Z,37.59
2019-01-06T04:17:50.464Z,38.20
2019-01-06T04:18:50.456Z,37.98
2019-01-06T04:19:50.461Z,37.88
2019-01-06T04:20:50.439Z,38.29
2019-01-06T04:21:50.430Z,37.77
2019-01-06T04:22:50.414Z,38.59
2019-01-06T04:23:50.402Z,38.89
2019-01-06T04:24:50.405Z,37.79
2019-01-06T04:25:50.383Z,38.70
2019-01-06T04:26:50.373Z,38.09
2019-01-06T04:27:50.362Z,37.70
2019-01-06T04:28:50.350Z,38.40
2019-01-06T04:29:50.363Z,38.28
2019-01-06T04:30:50.329Z,37.08
2019-01-06T04:31:50.360Z,37.27
2019-01-06T04:32:50.307Z,37.68
2019-01-06T04:33:50.299Z,37.58
2019-01-06T04:34:50.288Z,37.68
2019-01-06T04:35:50.290Z,37.48
2019-01-06T04:36:50.266Z,37.66
2019-01-06T04:37:50.255Z,38.06
2019-01-06T04:38:50.248Z,37.56
2019-01-06T04:39:50.250Z,38.06
2019-01-06T04:40:50.241Z,37.36
2019-01-06T04:41:50.217Z,37.14
2019-01-06T04:42:50.208Z,37.54
2019-01-06T04:43:50.192Z,36.04
2019-01-06T04:44:50.181Z,37.34
2019-01-06T04:45:50.186Z,36.44
2019-01-06T04:46:50.161Z,37.14
2019-01-06T04:47:50.152Z,36.82
2019-01-06T04:48:50.144Z,37.12
2019-01-06T04:49:50.129Z,36.52
2019-01-06T04:50:50.129Z,36.02
2019-01-06T04:51:50.111Z,36.93
2019-01-06T04:52:50.105Z,36.63
2019-01-06T04:53:50.091Z,36.72
2019-01-06T04:54:50.082Z,36.02
2019-01-06T04:55:50.083Z,36.02
2019-01-06T04:56:50.058Z,36.02
2019-01-06T04:57:50.048Z,36.41
2019-01-06T04:58:50.036Z,36.22
2019-01-06T04:59:50.028Z,36.32
2019-01-06T05:00:50.027Z,36.21
2019-01-06T05:01:50.007Z,35.91
2019-01-06T05:02:49.998Z,35.91
2019-01-06T05:03:49.986Z,35.51
2019-01-06T05:04:49.973Z,36.31
2019-01-06T05:05:49.974Z,36.11
2019-01-06T05:06:49.956Z,36.21
2019-01-06T05:07:49.946Z,36.01
2019-01-06T05:08:49.934Z,35.31
2019-01-06T05:09:49.926Z,35.81
2019-01-06T05:10:49.938Z,35.51
2019-01-06T05:11:49.901Z,36.01
2019-01-06T05:12:49.894Z,35.51
2019-01-06T05:13:49.881Z,35.71
2019-01-06T05:14:49.872Z,35.71
2019-01-06T05:15:49.856Z,35.81
2019-01-06T05:16:49.864Z,35.91
2019-01-06T05:17:49.837Z,35.31
2019-01-06T05:18:49.835Z,35.61
2019-01-06T05:19:49.817Z,35.81
2019-01-06T05:20:49.805Z,35.31
2019-01-06T05:21:49.809Z,36.01
2019-01-06T05:22:49.784Z,35.81
2019-01-06T05:23:49.776Z,36.01
2019-01-06T05:24:49.764Z,35.71
2019-01-06T05:25:49.752Z,35.81
2019-01-06T05:26:49.760Z,36.01
2019-01-06T05:27:49.733Z,35.31
2019-01-06T05:28:49.720Z,35.51
2019-01-06T05:29:49.715Z,35.83
2019-01-06T05:30:49.703Z,35.61
2019-01-06T05:31:49.721Z,35.31
2019-01-06T05:32:49.675Z,35.41
2019-01-06T05:33:49.688Z,36.22
2019-01-06T05:34:49.661Z,35.93
2019-01-06T05:35:49.644Z,36.13
2019-01-06T05:36:49.637Z,36.13
2019-01-06T05:37:49.641Z,36.32
2019-01-06T05:38:49.621Z,36.22
2019-01-06T05:39:49.609Z,36.52
2019-01-06T05:40:49.605Z,35.83
2019-01-06T05:41:49.589Z,36.02
2019-01-06T05:42:49.592Z,36.22
2019-01-06T05:43:49.572Z,36.32
2019-01-06T05:44:49.554Z,36.22
2019-01-06T05:45:49.539Z,36.22
2019-01-06T05:46:49.531Z,36.02
2019-01-06T05:47:49.537Z,36.43
2019-01-06T05:48:49.511Z,36.02
2019-01-06T05:49:49.512Z,36.02
2019-01-06T05:50:49.492Z,36.13
2019-01-06T05:51:49.475Z,36.43
2019-01-06T05:52:49.487Z,36.13
2019-01-06T05:53:49.463Z,36.24
2019-01-06T05:54:49.450Z,36.44
2019-01-06T05:55:49.442Z,37.02
2019-01-06T05:56:49.432Z,36.15
2019-01-06T05:57:49.433Z,36.04
2019-01-06T05:58:49.411Z,36.54
2019-01-06T05:59:49.391Z,36.84
2019-01-06T06:00:49.387Z,36.54
2019-01-06T06:01:49.375Z,36.44
2019-01-06T06:02:49.379Z,36.74
2019-01-06T06:03:49.361Z,37.04
2019-01-06T06:04:49.375Z,36.74
2019-01-06T06:05:49.333Z,37.04
2019-01-06T06:06:49.322Z,36.74
2019-01-06T06:07:49.358Z,36.34
2019-01-06T06:08:49.298Z,36.54
2019-01-06T06:09:49.327Z,36.54
2019-01-06T06:10:49.281Z,36.72
2019-01-06T06:11:49.276Z,36.34
2019-01-06T06:12:49.270Z,36.02
2019-01-06T06:13:49.247Z,36.04
2019-01-06T06:14:49.236Z,36.15
2019-01-06T06:15:49.231Z,36.15
2019-01-06T06:16:49.216Z,36.94
2019-01-06T06:17:49.223Z,36.15
2019-01-06T06:18:49.196Z,36.15
2019-01-06T06:19:49.188Z,36.44
2019-01-06T06:20:49.179Z,36.04
2019-01-06T06:21:49.161Z,36.52
2019-01-06T06:22:49.166Z,36.13
2019-01-06T06:23:49.143Z,36.32
2019-01-06T06:24:49.137Z,36.15
2019-01-06T06:25:49.126Z,36.52
2019-01-06T06:26:49.190Z,36.32
2019-01-06T06:27:49.118Z,36.52
2019-01-06T06:28:49.091Z,36.15
2019-01-06T06:29:49.081Z,36.13
2019-01-06T06:30:49.070Z,36.13
2019-01-06T06:31:49.062Z,36.22
2019-01-06T06:32:49.082Z,36.54
2019-01-06T06:33:49.046Z,36.24
2019-01-06T06:34:49.028Z,36.04
2019-01-06T06:35:49.018Z,36.94
2019-01-06T06:36:49.006Z,36.04
2019-01-06T06:37:49.003Z,36.04
2019-01-06T06:38:48.999Z,36.04
2019-01-06T06:39:48.978Z,36.94
2019-01-06T06:40:48.967Z,36.76
2019-01-06T06:41:48.956Z,36.86
2019-01-06T06:42:48.948Z,36.36
2019-01-06T06:43:48.946Z,36.56
2019-01-06T06:44:48.932Z,36.46
2019-01-06T06:45:48.913Z,37.06
2019-01-06T06:46:48.904Z,37.36
2019-01-06T06:47:48.892Z,37.16
2019-01-06T06:48:48.897Z,37.27
2019-01-06T06:49:48.876Z,36.68
2019-01-06T06:50:48.865Z,37.27
2019-01-06T06:51:48.855Z,37.18
2019-01-06T06:52:48.840Z,37.46
2019-01-06T06:53:48.844Z,37.58
2019-01-06T06:54:48.820Z,37.46
2019-01-06T06:55:48.810Z,37.26
2019-01-06T06:56:48.804Z,36.96
2019-01-06T06:57:48.789Z,36.96
2019-01-06T06:58:48.793Z,36.86
2019-01-06T06:59:48.768Z,36.86
2019-01-06T07:00:48.765Z,36.26
2019-01-06T07:01:48.752Z,36.96
2019-01-06T07:02:48.742Z,36.76
2019-01-06T07:03:48.749Z,37.06
2019-01-06T07:04:48.718Z,36.44
2019-01-06T07:05:48.718Z,36.64
2019-01-06T07:06:48.697Z,36.54
2019-01-06T07:07:48.688Z,36.84
2019-01-06T07:08:48.676Z,37.14
2019-01-06T07:09:48.677Z,37.24
2019-01-06T07:10:48.656Z,36.02
2019-01-06T07:11:48.643Z,37.02
2019-01-06T07:12:48.632Z,36.04
2019-01-06T07:13:48.626Z,36.15
2019-01-06T07:14:48.626Z,36.43
2019-01-06T07:15:48.605Z,36.24
2019-01-06T07:16:48.592Z,36.15
2019-01-06T07:17:48.583Z,36.04
2019-01-06T07:18:48.572Z,35.93
2019-01-06T07:19:48.580Z,36.04
2019-01-06T07:20:48.571Z,36.04
2019-01-06T07:21:48.543Z,36.04
2019-01-06T07:22:48.532Z,36.54
2019-01-06T07:23:48.525Z,36.24
2019-01-06T07:24:48.519Z,36.15
2019-01-06T07:25:48.503Z,36.34
2019-01-06T07:26:48.484Z,36.04
2019-01-06T07:27:48.479Z,37.14
2019-01-06T07:28:48.470Z,36.15
2019-01-06T07:29:48.469Z,36.54
2019-01-06T07:30:48.448Z,36.64
2019-01-06T07:31:48.438Z,36.96
2019-01-06T07:32:48.420Z,36.86
2019-01-06T07:33:48.420Z,36.54
2019-01-06T07:34:48.418Z,36.34
2019-01-06T07:35:48.396Z,37.24
2019-01-06T07:36:48.385Z,37.54
2019-01-06T07:37:48.374Z,37.36
2019-01-06T07:38:48.360Z,37.64
2019-01-06T07:39:48.375Z,37.24
2019-01-06T07:40:48.345Z,36.96
2019-01-06T07:41:48.367Z,36.86
2019-01-06T07:42:48.331Z,37.06
2019-01-06T07:43:48.336Z,37.16
2019-01-06T07:44:48.320Z,37.46
2019-01-06T07:45:48.300Z,37.76
2019-01-06T07:46:48.301Z,37.26
2019-01-06T07:47:48.267Z,37.76
2019-01-06T07:48:48.268Z,37.56
2019-01-06T07:49:48.276Z,37.96
2019-01-06T07:50:48.238Z,37.96
2019-01-06T07:51:48.229Z,38.76
2019-01-06T07:52:48.222Z,39.15
2019-01-06T07:53:48.209Z,39.26
2019-01-06T07:54:48.197Z,40.16
2019-01-06T07:55:48.197Z,39.26
2019-01-06T07:56:48.174Z,39.46
2019-01-06T07:57:48.171Z,39.46
2019-01-06T07:58:48.165Z,39.65
2019-01-06T07:59:48.144Z,40.08
2019-01-06T08:00:48.153Z,40.17
2019-01-06T08:01:48.128Z,39.37
2019-01-06T08:02:48.109Z,39.78
2019-01-06T08:03:48.104Z,39.78
2019-01-06T08:04:48.101Z,40.28
2019-01-06T08:05:48.092Z,40.99
2019-01-06T08:06:48.068Z,39.89
2019-01-06T08:07:48.060Z,40.99
2019-01-06T08:08:48.046Z,41.49
2019-01-06T08:09:48.038Z,41.60
2019-01-06T08:10:48.042Z,41.60
2019-01-06T08:11:48.021Z,41.60
2019-01-06T08:12:48.007Z,42.29
2019-01-06T08:13:47.993Z,42.61
2019-01-06T08:14:49.784Z,44.09
2019-01-06T08:15:48.005Z,44.12
2019-01-06T08:16:47.968Z,44.12
2019-01-06T08:17:47.953Z,45.09
2019-01-06T08:18:47.947Z,45.50
2019-01-06T08:19:47.945Z,45.29
2019-01-06T08:20:47.942Z,45.92
2019-01-06T08:21:47.911Z,46.62
2019-01-06T08:22:47.903Z,46.72
2019-01-06T08:23:47.891Z,46.81
2019-01-06T08:24:47.883Z,46.81
2019-01-06T08:25:47.890Z,46.72
2019-01-06T08:26:47.859Z,47.11
2019-01-06T08:27:47.885Z,47.64
2019-01-06T08:28:47.840Z,47.14
2019-01-06T08:29:47.831Z,47.84
2019-01-06T08:30:47.838Z,47.74
2019-01-06T08:31:47.807Z,46.44
2019-01-06T08:32:47.798Z,46.74
2019-01-06T08:33:47.788Z,45.84
2019-01-06T08:34:47.774Z,46.51
2019-01-06T08:35:47.790Z,46.00
2019-01-06T08:36:47.760Z,45.69
2019-01-06T08:37:47.743Z,44.59
2019-01-06T08:38:47.732Z,44.17
2019-01-06T08:39:47.727Z,44.57
2019-01-06T08:40:47.729Z,43.87
2019-01-06T08:41:47.704Z,43.57
2019-01-06T08:42:47.687Z,43.45
2019-01-06T08:43:47.683Z,41.46
2019-01-06T08:44:47.666Z,38.26
2019-01-06T08:45:47.668Z,37.06
2019-01-06T08:46:47.651Z,36.38
2019-01-06T08:47:47.633Z,34.78
2019-01-06T08:48:47.627Z,35.48
2019-01-06T08:49:47.615Z,36.58
2019-01-06T08:50:47.628Z,37.10
2019-01-06T08:51:47.595Z,37.40
2019-01-06T08:52:47.582Z,37.40
2019-01-06T08:53:47.565Z,37.90
2019-01-06T08:54:47.561Z,37.70
2019-01-06T08:55:47.548Z,37.29
2019-01-06T08:56:47.555Z,37.99
2019-01-06T08:57:47.529Z,37.38
2019-01-06T08:58:47.517Z,37.48
2019-01-06T08:59:47.507Z,37.58
2019-01-06T09:00:47.501Z,37.90
2019-01-06T09:01:47.496Z,37.59
2019-01-06T09:02:47.482Z,38.70
2019-01-06T09:03:47.470Z,38.29
2019-01-06T09:04:47.459Z,37.90
2019-01-06T09:05:47.447Z,37.90
2019-01-06T09:06:47.447Z,38.38
2019-01-06T09:07:47.425Z,37.77
2019-01-06T09:08:47.408Z,37.58
2019-01-06T09:09:47.409Z,37.99
2019-01-06T09:10:47.390Z,37.77
2019-01-06T09:11:47.401Z,37.77
2019-01-06T09:12:47.363Z,38.18
2019-01-06T09:13:47.364Z,38.28
2019-01-06T09:14:47.351Z,37.58
2019-01-06T09:15:47.371Z,37.77
2019-01-06T09:16:47.347Z,37.77
2019-01-06T09:17:47.313Z,38.38
2019-01-06T09:18:47.299Z,38.89
2019-01-06T09:19:50.635Z,37.98
2019-01-06T09:20:47.288Z,38.68
2019-01-06T09:21:47.298Z,38.59
2019-01-06T09:22:47.258Z,38.48
2019-01-06T09:23:47.247Z,37.77
2019-01-06T09:24:47.247Z,37.77
2019-01-06T09:25:47.227Z,38.28
2019-01-06T09:26:47.230Z,38.70
2019-01-06T09:27:47.205Z,38.40
2019-01-06T09:28:47.190Z,38.49
2019-01-06T09:29:47.217Z,38.78
2019-01-06T09:30:47.172Z,38.49
2019-01-06T09:31:47.199Z,38.49
2019-01-06T09:32:47.156Z,38.49
2019-01-06T09:33:47.154Z,38.70
2019-01-06T09:34:47.139Z,38.79
2019-01-06T09:35:47.119Z,38.89
2019-01-06T09:36:47.115Z,38.79
2019-01-06T09:37:47.112Z,38.40
2019-01-06T09:38:47.098Z,38.79
2019-01-06T09:39:47.075Z,38.89
2019-01-06T09:40:47.659Z,38.20
2019-01-06T09:41:47.053Z,38.40
2019-01-06T09:42:47.063Z,38.61
2019-01-06T09:43:47.033Z,38.42
2019-01-06T09:44:47.020Z,38.81
2019-01-06T09:45:47.010Z,38.81
2019-01-06T09:46:47.167Z,38.51
2019-01-06T09:47:47.000Z,38.42
2019-01-06T09:48:46.982Z,38.42
2019-01-06T09:49:46.971Z,38.91
2019-01-06T09:50:46.952Z,38.21
2019-01-06T09:51:46.945Z,38.42
2019-01-06T09:52:46.950Z,39.11
2019-01-06T09:53:46.927Z,38.31
2019-01-06T09:54:46.914Z,39.22
2019-01-06T09:55:46.898Z,38.21
2019-01-06T09:56:46.890Z,39.63
2019-01-06T09:57:46.907Z,38.93
2019-01-06T09:58:46.870Z,39.43
2019-01-06T09:59:46.865Z,39.41
2019-01-06T10:00:46.845Z,38.83
2019-01-06T10:01:46.839Z,39.33
2019-01-06T10:02:48.828Z,38.33
2019-01-06T10:03:46.818Z,39.53
2019-01-06T10:04:46.809Z,39.53
2019-01-06T10:05:46.797Z,39.63
2019-01-06T10:06:46.782Z,39.33
2019-01-06T10:07:46.787Z,39.33
2019-01-06T10:08:46.778Z,39.43
2019-01-06T10:09:46.752Z,39.43
2019-01-06T10:10:46.746Z,39.45
2019-01-06T10:11:46.732Z,39.45
2019-01-06T10:12:46.749Z,39.03
2019-01-06T10:13:46.707Z,39.23
2019-01-06T10:14:46.697Z,39.63
2019-01-06T10:15:46.693Z,39.15
2019-01-06T10:16:46.683Z,38.53
2019-01-06T10:17:46.698Z,38.23
2019-01-06T10:18:46.660Z,38.33
2019-01-06T10:19:46.650Z,38.73
2019-01-06T10:20:46.636Z,38.43
2019-01-06T10:21:46.627Z,38.83
2019-01-06T10:22:46.665Z,38.95
2019-01-06T10:23:46.621Z,38.85
2019-01-06T10:24:51.793Z,39.05
2019-01-06T10:25:47.585Z,38.25
2019-01-06T10:26:46.581Z,39.45
2019-01-06T10:27:46.571Z,40.25
2019-01-06T10:28:47.238Z,39.95
2019-01-06T10:29:46.569Z,39.47
2019-01-06T10:30:46.535Z,39.87
2019-01-06T10:31:46.537Z,40.07
2019-01-06T10:32:46.533Z,39.77
2019-01-06T10:33:46.535Z,39.87
2019-01-06T10:34:46.507Z,39.57
2019-01-06T10:35:46.513Z,39.67
2019-01-06T10:36:46.481Z,39.55
2019-01-06T10:37:46.478Z,40.05
2019-01-06T10:38:46.554Z,39.65
2019-01-06T10:39:46.452Z,39.55
2019-01-06T10:40:46.453Z,39.95
2019-01-06T10:41:46.769Z,39.93
2019-01-06T10:42:46.435Z,39.33
2019-01-06T10:43:46.443Z,38.23
2019-01-06T10:44:46.494Z,38.73
2019-01-06T10:45:46.387Z,38.71
2019-01-06T10:46:46.387Z,38.51
2019-01-06T10:47:46.372Z,38.42
2019-01-06T10:48:46.382Z,38.61
2019-01-06T10:49:46.344Z,37.71
2019-01-06T10:50:46.410Z,37.41
2019-01-06T10:51:46.340Z,37.81
2019-01-06T10:52:46.314Z,37.59
2019-01-06T10:53:46.381Z,37.99
2019-01-06T10:54:46.297Z,38.29
2019-01-06T10:55:46.292Z,38.29
2019-01-06T10:56:46.323Z,37.79
2019-01-06T10:57:46.304Z,37.40
2019-01-06T10:58:46.263Z,37.59
2019-01-06T10:59:46.240Z,37.79
2019-01-06T11:00:46.230Z,37.59
2019-01-06T11:01:46.240Z,37.58
2019-01-06T11:02:46.207Z,37.77
2019-01-06T11:03:46.241Z,37.59
2019-01-06T11:04:46.203Z,37.98
2019-01-06T11:05:46.209Z,37.99
2019-01-06T11:06:46.178Z,37.19
2019-01-06T11:07:46.152Z,37.59
2019-01-06T11:08:46.143Z,37.27
2019-01-06T11:09:46.146Z,38.07
2019-01-06T11:10:46.142Z,37.29
2019-01-06T11:11:46.201Z,38.09
2019-01-06T11:12:46.100Z,37.48
2019-01-06T11:13:46.164Z,37.99
2019-01-06T11:14:46.154Z,38.09
2019-01-06T11:15:46.062Z,37.79
2019-01-06T11:16:46.058Z,37.29
2019-01-06T11:17:46.041Z,37.19
2019-01-06T11:18:46.034Z,37.79
2019-01-06T11:19:46.041Z,37.49
2019-01-06T11:20:46.013Z,37.99
2019-01-06T11:21:46.002Z,37.90
2019-01-06T11:22:47.578Z,37.29
2019-01-06T11:23:45.992Z,38.09
2019-01-06T11:24:45.999Z,37.59
2019-01-06T11:25:45.956Z,37.29
2019-01-06T11:26:45.947Z,37.49
2019-01-06T11:27:45.946Z,37.70
2019-01-06T11:28:45.947Z,37.59
2019-01-06T11:29:45.933Z,37.49
2019-01-06T11:30:45.902Z,37.29
2019-01-06T11:31:45.915Z,37.10
2019-01-06T11:32:45.895Z,37.29
2019-01-06T11:33:45.875Z,37.40
2019-01-06T11:34:45.889Z,37.19
2019-01-06T11:35:45.849Z,37.10
2019-01-06T11:36:45.838Z,37.19
2019-01-06T11:37:45.822Z,37.59
2019-01-06T11:38:45.821Z,37.49
2019-01-06T11:39:45.833Z,37.19
2019-01-06T11:40:45.795Z,36.99
2019-01-06T11:41:45.790Z,37.19
2019-01-06T11:42:45.785Z,37.79
2019-01-06T11:43:45.765Z,37.81
2019-01-06T11:44:45.751Z,37.59
2019-01-06T11:45:45.755Z,37.51
2019-01-06T11:46:45.731Z,37.71
2019-01-06T11:47:45.721Z,37.61
2019-01-06T11:48:45.708Z,37.92
2019-01-06T11:49:45.713Z,38.11
2019-01-06T11:50:45.700Z,37.71
2019-01-06T11:51:45.690Z,37.81
2019-01-06T11:52:45.680Z,38.01
2019-01-06T11:53:45.662Z,37.81
2019-01-06T11:54:45.665Z,38.01
2019-01-06T11:55:45.690Z,38.81
2019-01-06T11:56:45.634Z,38.81
2019-01-06T11:57:45.633Z,38.51
2019-01-06T11:58:45.609Z,38.42
2019-01-06T11:59:45.611Z,38.42
2019-01-06T12:00:45.597Z,39.41
2019-01-06T12:01:45.567Z,39.91
2019-01-06T12:02:45.553Z,40.22
2019-01-06T12:03:45.548Z,40.61
2019-01-06T12:04:45.546Z,40.81
2019-01-06T12:05:45.531Z,40.52
2019-01-06T12:06:45.508Z,40.41
2019-01-06T12:07:45.505Z,41.61
2019-01-06T12:08:45.484Z,41.61
2019-01-06T12:09:45.480Z,41.31
2019-01-06T12:10:45.482Z,42.11
2019-01-06T12:11:45.454Z,42.41
2019-01-06T12:12:45.440Z,43.01
2019-01-06T12:13:45.441Z,43.62
2019-01-06T12:14:45.436Z,42.02
2019-01-06T12:15:45.440Z,43.82
2019-01-06T12:16:45.410Z,43.41
2019-01-06T12:17:45.395Z,44.71
2019-01-06T12:18:45.386Z,44.82
2019-01-06T12:19:45.399Z,47.52
2019-01-06T12:20:45.372Z,45.31
2019-01-06T12:21:45.358Z,44.42
2019-01-06T12:22:45.341Z,44.32
2019-01-06T12:23:45.344Z,43.91
2019-01-06T12:24:45.365Z,43.71
2019-01-06T12:25:45.345Z,45.31
2019-01-06T12:26:45.302Z,45.51
2019-01-06T12:27:45.288Z,45.72
2019-01-06T12:28:45.276Z,46.72
2019-01-06T12:29:45.268Z,49.32
2019-01-06T12:30:45.271Z,48.42
2019-01-06T12:31:45.245Z,47.72
2019-01-06T12:32:45.241Z,47.52
2019-01-06T12:33:45.230Z,47.52
2019-01-06T12:34:45.226Z,47.39
2019-01-06T12:35:45.221Z,49.19
2019-01-06T12:36:45.199Z,48.39
2019-01-06T12:37:45.201Z,49.59
2019-01-06T12:38:45.185Z,49.40
2019-01-06T12:39:45.173Z,49.09
2019-01-06T12:40:45.168Z,50.97
2019-01-06T12:41:45.140Z,51.27
2019-01-06T12:42:45.132Z,49.77
2019-01-06T12:43:45.128Z,49.97
2019-01-06T12:44:45.134Z,50.07
2019-01-06T12:45:45.126Z,49.57
2019-01-06T12:46:45.101Z,49.17
2019-01-06T12:47:45.083Z,46.75
2019-01-06T12:48:45.073Z,47.27
2019-01-06T12:49:45.063Z,48.37
2019-01-06T12:50:45.107Z,47.97
2019-01-06T12:51:45.047Z,48.27
2019-01-06T12:52:45.029Z,48.97